Els Cortals - Les Guilleries





Hora UTC 20:40
Temperatura 16.2 ºC
Humitat 86.0 %
Pressió 1014.1 hPa
Pluja 0.0 mm
Velocitat vent 0.0 km/h
Direcció vent ESE

Dades diàries 2022-08-19



Hora UTC (hivern +1h; estiu +2h)
Temperatura (ºC) Humitat (%) Pressió (hPa) Velocitat vent (km/h) Precipitació (mm)
Hora UTC Aire Humitat Pressió Vel. Dir. Vel. Max Dir. Intent. màx 5 min.
00:05 14.1 80.0 1011.6 0.0 SW 0.0 0.0
00:10 13.9 80.0 1011.5 1.6 SW 6.4 0.0
00:15 13.8 80.0 1011.5 0.0 SW 3.2 0.0
00:20 13.6 81.0 1011.6 0.0 WSW 8.0 0.0
00:20 13.5 81.0 1011.5 0.0 WSW 8.0 0.0
00:30 13.2 82.0 1011.5 0.0 WSW 3.2 0.0
00:35 13.0 82.0 1011.4 0.0 WSW 3.2 0.0
00:40 12.8 83.0 1011.4 0.0 WSW 3.2 0.0
00:40 12.8 83.0 1011.4 0.0 WNW 3.2 0.0
00:50 0.0
00:55 12.7 83.0 1011.4 1.6 WNW 8.0 0.0
01:00 12.7 83.0 1011.4 0.0 WNW 4.8 0.0
01:00 12.7 84.0 1011.4 1.6 WNW 4.8 0.0
01:10 12.6 84.0 1011.4 0.0 SSW 3.2 0.0
01:15 12.6 84.0 1011.4 0.0 SSW 3.2 0.0
01:15 12.6 84.0 1011.3 0.0 SSW 1.6 0.0
01:25 12.6 84.0 1011.4 0.0 WSW 1.6 0.0
01:30 12.7 84.0 1011.4 0.0 WSW 1.6 0.0
01:35 12.7 84.0 1011.3 3.2 SW 3.2 0.0
01:40 12.7 84.0 1011.4 1.6 SW 8.0 0.0
01:40 13.2 84.0 1011.4 6.4 SW 11.3 0.0
01:50 13.6 83.0 1011.4 6.4 WSW 11.3 0.0
01:50 13.8 82.0 1011.4 1.6 W 11.3 0.0
02:00 13.9 82.0 1011.4 8.0 W 14.5 0.0
02:05 14.0 82.0 1011.5 11.3 SW 14.5 0.0
02:10 0.0
02:15 14.1 82.0 1011.7 8.0 W 17.7 0.0
02:20 14.1 82.0 1011.8 6.4 WSW 14.5 0.0
02:20 14.1 82.0 1011.8 8.0 WSW 14.5 0.0
02:30 0.0
02:35 13.8 83.0 1011.7 4.8 SSW 12.9 0.0
02:40 13.8 83.0 1011.6 8.0 SW 14.5 0.0
02:45 0.0
02:50 13.6 83.0 1011.5 0.0 SW 8.0 0.0
02:55 13.5 83.0 1011.5 0.0 SW 9.7 0.0
03:00 0.0
03:00 13.7 82.0 1011.4 4.8 SW 14.5 0.0
03:05 13.7 82.0 1011.7 0.0 SW 14.5 0.0
03:15 0.0
03:20 13.6 82.0 1011.7 8.0 SW 11.3 0.0
03:25 13.6 83.0 1011.8 0.0 WSW 11.3 0.0
03:30 13.6 83.0 1011.7 0.0 SW 9.7 0.0
03:35 13.5 82.0 1011.7 1.6 WNW 9.7 0.0
03:35 13.4 83.0 1011.8 0.0 WSW 9.7 0.0
03:40 13.4 83.0 1011.9 6.4 W 11.3 0.0
03:50 13.4 83.0 1011.9 0.0 WSW 11.3 0.0
03:50 13.4 83.0 1011.9 0.0 WSW 11.3 0.0
04:00 13.2 83.0 1011.9 0.0 W 9.7 0.0
04:00 13.2 83.0 1012.0 0.0 W 9.7 0.0
04:10 13.1 84.0 1012.0 8.0 WNW 11.3 0.0
04:10 13.1 84.0 1012.0 6.4 NW 11.3 0.0
04:20 0.0
04:25 12.9 86.0 1012.0 8.0 NW 14.5 0.0
04:30 12.8 85.0 1011.9 6.4 NW 14.5 0.0
04:35 12.6 86.0 1012.0 9.7 NNW 11.3 0.0
04:40 12.4 86.0 1012.0 11.3 NW 14.5 0.0
04:40 12.4 86.0 1012.1 8.0 NW 14.5 0.0
04:50 0.0
04:55 12.2 86.0 1012.2 6.4 NW 16.1 0.0
05:00 12.2 86.0 1012.4 9.7 NW 16.1 0.0
05:00 12.2 86.0 1012.3 8.0 NNW 14.5 0.0
05:10 12.1 86.0 1012.2 4.8 NNW 11.3 0.0
05:10 12.1 86.0 1012.3 1.6 NNW 11.3 0.0
05:15 12.1 86.0 1012.5 0.0 NNW 8.0 0.0
05:25 12.0 86.0 1012.6 0.0 WNW 6.4 0.0
05:30 12.0 86.0 1012.6 0.0 NW 8.0 0.0
05:35 0.0
05:40 0.0
05:45 0.0
05:50 12.7 87.0 1012.7 6.4 NW 9.7 0.0
05:55 0.0
06:00 13.5 84.0 1012.9 0.0 W 9.7 0.0
06:00 13.7 84.0 1012.7 0.0 W 9.7 0.0
06:10 14.2 82.0 1012.8 0.0 W 3.2 0.0
06:15 14.8 82.0 1012.8 0.0 W 3.2 0.0
06:20 15.4 82.0 1012.8 0.0 W 0.0 0.0
06:25 15.8 81.0 1012.9 0.0 W 0.0 0.0
06:30 16.4 78.0 1013.0 0.0 W 0.0 0.0
06:35 16.9 77.0 1013.0 0.0 W 0.0 0.0
06:40 17.4 73.0 1013.0 0.0 W 0.0 0.0
06:45 17.9 71.0 1013.0 0.0 W 0.0 0.0
06:50 18.4 68.0 1013.0 0.0 W 0.0 0.0
06:55 18.7 66.0 1013.0 0.0 W 0.0 0.0
07:00 19.1 66.0 1013.2 0.0 NE 3.2 0.0
07:05 19.1 65.0 1013.2 0.0 NE 3.2 0.0
07:10 19.2 65.0 1013.3 0.0 NE 0.0 0.0
07:15 19.2 63.0 1013.3 0.0 NE 3.2 0.0
07:20 19.2 63.0 1013.3 0.0 NE 3.2 0.0
07:25 19.0 63.0 1013.4 3.2 NE 3.2 0.0
07:30 18.7 65.0 1013.5 6.4 SW 9.7 0.0
07:35 18.4 64.0 1013.6 0.0 SSE 9.7 0.0
07:40 18.4 65.0 1013.5 1.6 WSW 4.8 0.0
07:45 18.7 64.0 1013.4 0.0 S 6.4 0.0
07:50 18.9 63.0 1013.5 0.0 S 3.2 0.0
07:55 19.1 62.0 1013.4 0.0 S 6.4 0.0
08:00 19.4 62.0 1013.4 0.0 S 6.4 0.0
08:05 19.8 60.0 1013.5 0.0 S 0.0 0.0
08:10 20.0 61.0 1013.3 8.0 SE 8.0 0.0
08:15 20.5 64.0 1013.4 0.0 E 8.0 0.0
08:20 20.8 61.0 1013.4 4.8 ESE 9.7 0.0
08:25 20.9 61.0 1013.4 0.0 ESE 9.7 0.0
08:30 20.9 62.0 1013.2 1.6 ESE 9.7 0.0
08:35 20.9 61.0 1013.2 0.0 ESE 9.7 0.0
08:40 20.9 63.0 1013.3 1.6 ESE 9.7 0.0
08:45 20.8 61.0 1013.3 0.0 SE 9.7 0.0
08:50 20.8 57.0 1013.6 0.0 SE 8.0 0.0
08:55 21.0 60.0 1013.5 8.0 ENE 9.7 0.0
09:00 21.1 61.0 1013.5 3.2 NE 11.3 0.0
09:05 21.1 61.0 1013.4 1.6 ESE 11.3 0.0
09:10 21.3 62.0 1013.5 8.0 S 9.7 0.0
09:15 21.3 60.0 1013.5 0.0 SSE 9.7 0.0
09:15 21.3 60.0 1013.5 4.8 SE 12.9 0.0
09:25 21.2 61.0 1013.5 1.6 ESE 12.9 0.0
09:30 21.2 61.0 1013.6 4.8 ESE 12.9 0.0
09:35 21.0 62.0 1013.6 0.0 SE 11.3 0.0
09:40 21.2 62.0 1013.7 0.0 SE 9.7 0.0
09:45 21.1 62.0 1013.7 6.4 ESE 9.7 0.0
09:50 21.1 63.0 1013.8 6.4 SSE 11.3 0.0
09:55 21.2 64.0 1013.7 0.0 ENE 14.5 0.0
10:00 21.3 64.0 1013.9 3.2 E 12.9 0.0
10:05 21.6 65.0 1013.7 1.6 NE 14.5 0.0
10:10 21.8 64.0 1013.9 0.0 SE 11.3 0.0
10:15 21.8 66.0 1013.6 0.0 NNE 9.7 0.0
10:20 21.8 63.0 1013.6 0.0 SSE 11.3 0.0
10:25 21.9 64.0 1013.6 3.2 SE 11.3 0.0
10:30 21.9 63.0 1013.4 1.6 E 11.3 0.0
10:35 22.3 64.0 1013.3 1.6 SE 9.7 0.0
10:40 22.4 64.0 1013.4 11.3 ESE 11.3 0.0
10:45 22.4 62.0 1013.4 1.6 ENE 12.9 0.0
10:50 22.5 64.0 1013.5 9.7 ESE 12.9 0.0
10:55 22.6 62.0 1013.6 4.8 SE 12.9 0.0
11:00 22.7 63.0 1013.5 0.0 E 12.9 0.0
11:05 22.7 62.0 1013.4 3.2 NE 12.9 0.0
11:10 22.7 64.0 1013.5 0.0 E 12.9 0.0
11:15 22.9 63.0 1013.5 6.4 SSW 12.9 0.0
11:20 23.1 62.0 1013.5 1.6 S 8.0 0.0
11:25 23.4 61.0 1013.6 8.0 N 11.3 0.0
11:30 23.2 60.0 1013.5 0.0 E 11.3 0.0
11:35 22.9 61.0 1013.5 1.6 NNW 9.7 0.0
11:40 22.6 60.0 1013.4 0.0 NNW 9.7 0.0
11:45 22.3 61.0 1013.3 1.6 NNW 9.7 0.0
11:50 22.1 61.0 1013.4 0.0 NNW 3.2 0.0
11:55 21.8 62.0 1013.4 0.0 E 3.2 0.0
12:00 21.8 62.0 1013.3 4.8 ENE 6.4 0.0
12:00 22.0 61.0 1013.3 6.4 NE 12.9 0.0
12:10 22.4 60.0 1013.1 3.2 NE 8.0 0.0
12:15 22.7 59.0 1013.2 3.2 E 12.9 0.0
12:20 22.9 59.0 1013.1 0.0 NNW 14.5 0.0
12:25 22.9 61.0 1013.2 6.4 ENE 11.3 0.0
12:30 22.6 61.0 1013.1 1.6 E 12.9 0.0
12:35 22.2 63.0 1013.2 12.9 ENE 14.5 0.0
12:40 21.8 63.0 1013.2 0.0 E 14.5 0.0
12:45 21.5 64.0 1013.4 4.8 E 12.9 0.0
12:50 21.3 65.0 1013.2 9.7 ESE 12.9 0.0
12:55 21.3 66.0 1013.2 0.0 ESE 12.9 0.0
13:00 21.5 67.0 1013.1 0.0 WSW 8.0 0.0
13:05 22.1 64.0 1013.2 6.4 W 16.1 0.0
13:10 22.5 64.0 1013.2 1.6 SE 16.1 0.0
13:15 22.9 64.0 1013.1 4.8 ESE 12.9 0.0
13:20 23.4 63.0 1013.1 9.7 E 14.5 0.0
13:25 23.6 62.0 1013.1 3.2 SE 16.1 0.0
13:30 23.6 61.0 1013.3 16.1 E 16.1 0.0
13:35 23.0 63.0 1013.2 1.6 SSW 17.7 0.0
13:40 22.9 63.0 1013.2 11.3 ESE 17.7 0.0
13:45 23.2 63.0 1013.2 9.7 E 17.7 0.0
13:50 23.4 62.0 1013.2 9.7 E 19.3 0.0
13:55 22.9 63.0 1013.2 1.6 SSE 19.3 0.0
14:00 22.6 64.0 1013.2 1.6 ESE 16.1 0.0
14:05 22.3 65.0 1013.2 3.2 ESE 16.1 0.0
14:10 22.1 67.0 1013.2 8.0 ENE 16.1 0.0
14:15 22.2 67.0 1013.2 4.8 SE 19.3 0.0
14:20 22.4 67.0 1013.2 11.3 E 19.3 0.0
14:25 22.6 68.0 1013.2 6.4 SE 17.7 0.0
14:30 22.9 66.0 1013.2 12.9 SE 17.7 0.0
14:35 23.1 67.0 1013.3 8.0 ESE 17.7 0.0
14:40 22.9 66.0 1013.2 9.7 SE 20.9 0.0
14:45 22.7 66.0 1013.2 16.1 ESE 29.0 0.0
14:50 22.6 67.0 1013.2 16.1 SE 29.0 0.0
14:55 22.4 67.0 1013.3 11.3 NE 22.5 0.0
15:00 22.2 68.0 1013.2 8.0 SSW 20.9 0.0
15:05 22.2 68.0 1013.2 11.3 SE 19.3 0.0
15:10 22.1 69.0 1013.2 9.7 E 16.1 0.0
15:15 22.1 69.0 1013.0 11.3 E 16.1 0.0
15:20 21.9 69.0 1013.0 4.8 E 17.7 0.0
15:25 22.0 70.0 1013.0 0.0 SE 16.1 0.0
15:30 22.2 69.0 1012.8 9.7 E 14.5 0.0
15:35 22.2 69.0 1012.9 6.4 E 16.1 0.0
15:40 22.1 69.0 1012.9 6.4 SE 16.1 0.0
15:45 22.4 69.0 1012.8 9.7 E 11.3 0.0
15:50 22.3 68.0 1012.9 8.0 E 16.1 0.0
15:55 22.2 68.0 1012.8 1.6 ESE 16.1 0.0
16:00 21.9 70.0 1012.8 12.9 ESE 17.7 0.0
16:05 21.6 70.0 1012.8 11.3 E 17.7 0.0
16:10 21.2 72.0 1012.8 8.0 ESE 14.5 0.0
16:15 21.1 73.0 1012.7 4.8 SSE 16.1 0.0
16:20 21.1 74.0 1012.7 8.0 ESE 16.1 0.0
16:25 21.1 74.0 1012.7 1.6 SE 16.1 0.0
16:30 21.2 74.0 1012.7 11.3 ESE 16.1 0.0
16:35 21.1 74.0 1012.8 1.6 ESE 14.5 0.0
16:40 20.7 75.0 1012.7 9.7 SE 14.5 0.0
16:45 20.6 76.0 1012.8 8.0 ESE 14.5 0.0
16:50 20.4 77.0 1012.7 6.4 E 14.5 0.0
16:55 20.3 77.0 1012.8 8.0 ESE 14.5 0.0
17:00 20.2 77.0 1012.8 11.3 ESE 14.5 0.0
17:05 20.1 78.0 1012.7 9.7 E 14.5 0.0
17:10 19.9 79.0 1012.7 9.7 E 14.5 0.0
17:15 19.8 80.0 1012.7 11.3 ESE 14.5 0.0
17:20 19.7 80.0 1012.7 6.4 SE 12.9 0.0
17:25 19.6 80.0 1012.6 6.4 ESE 11.3 0.0
17:30 19.4 81.0 1012.7 1.6 E 11.3 0.0
17:35 19.2 82.0 1012.7 6.4 ESE 11.3 0.0
17:40 19.0 82.0 1012.7 0.0 ESE 9.7 0.0
17:45 18.8 83.0 1012.6 1.6 ESE 9.7 0.0
17:50 18.7 84.0 1012.6 0.0 ESE 9.7 0.0
17:55 18.5 85.0 1012.8 1.6 ESE 6.4 0.0
18:00 18.4 85.0 1012.8 4.8 ESE 4.8 0.0
18:05 18.2 85.0 1012.8 1.6 ESE 6.4 0.0
18:10 18.1 86.0 1012.8 0.0 ESE 3.2 0.0
18:15 18.0 86.0 1012.8 0.0 ESE 3.2 0.0
18:20 17.9 86.0 1012.9 0.0 ESE 0.0 0.0
18:25 17.8 87.0 1013.0 0.0 ESE 0.0 0.0
18:30 17.8 87.0 1013.0 0.0 ESE 0.0 0.0
18:35 17.7 87.0 1013.1 0.0 ESE 0.0 0.0
18:40 17.6 87.0 1013.2 0.0 ESE 0.0 0.0
18:45 17.5 89.0 1013.3 0.0 ESE 0.0 0.0
18:50 17.4 88.0 1013.3 0.0 ESE 0.0 0.0
18:55 17.3 88.0 1013.3 0.0 ESE 0.0 0.0
19:00 17.3 88.0 1013.4 0.0 ESE 0.0 0.0
19:05 17.2 88.0 1013.6 0.0 ESE 0.0 0.0
19:10 17.1 88.0 1013.6 0.0 ESE 0.0 0.0
19:15 17.0 88.0 1013.6 0.0 ESE 3.2 0.0
19:20 17.0 88.0 1013.7 0.0 ESE 3.2 0.0
19:25 16.9 88.0 1013.7 0.0 ESE 1.6 0.0
19:30 16.9 88.0 1013.7 0.0 ESE 0.0 0.0
19:35 16.8 88.0 1013.8 0.0 ESE 0.0 0.0
19:40 16.8 88.0 1013.8 0.0 ESE 0.0 0.0
19:45 16.7 88.0 1013.8 0.0 ESE 0.0 0.0
19:50 16.6 88.0 1013.8 0.0 ESE 0.0 0.0
19:55 16.6 87.0 1013.9 0.0 ESE 0.0 0.0
20:00 16.4 87.0 1014.0 0.0 ESE 0.0 0.0
20:05 16.3 87.0 1013.9 0.0 ESE 0.0 0.0
20:10 16.2 87.0 1014.0 0.0 ESE 0.0 0.0
20:15 16.2 87.0 1013.9 0.0 ESE 0.0 0.0
20:20 16.2 87.0 1014.0 0.0 ESE 0.0 0.0
20:25 16.2 86.0 1014.0 0.0 ESE 0.0 0.0
20:30 16.2 86.0 1014.0 0.0 ESE 0.0 0.0
20:35 16.2 86.0 1014.1 0.0 ESE 0.0 0.0
20:40 16.2 86.0 1014.1 0.0 ESE 0.0 0.0
Màxima 23.7 89.0 1014.1 16.1 SE 29.0 0.0
Mínima 12.0 57.0 1011.3
Total 0.0